Time,TemperatureF,DewpointF,PressureIn,WindDirection,WindDirectionDegrees,WindSpeedMPH,WindSpeedGustMPH,Humidity,HourlyPrecipIn,Conditions,Clouds,dailyrainin,SoftwareType,DateUTC
2013-08-29 00:01:00,53.0,52.0,-100.00,ESE,121,1.0,3.0,98,0.00,,,0.31,,2013-08-29 07:01:00,
2013-08-29 00:12:00,53.0,52.0,-100.00,ESE,121,1.0,3.0,98,0.00,,,0.31,,2013-08-29 07:12:00,
2013-08-29 00:42:00,53.0,53.0,-100.00,SE,132,0.0,4.0,99,0.00,,,0.31,,2013-08-29 07:42:00,
2013-08-29 00:53:00,53.0,53.0,-100.00,SE,132,0.0,4.0,99,0.00,,,0.31,,2013-08-29 07:53:00,
2013-08-29 01:02:00,53.0,53.0,-100.00,SE,132,0.0,4.0,99,0.00,,,0.31,,2013-08-29 08:02:00,
2013-08-29 01:12:00,53.0,53.0,-100.00,SE,132,0.0,4.0,99,0.00,,,0.31,,2013-08-29 08:12:00,
2013-08-29 01:42:00,53.0,53.0,-100.00,SE,125,2.0,4.0,99,0.00,,,-99.99,,2013-08-29 08:42:00,
2013-08-29 01:52:00,53.0,53.0,-100.00,SE,125,2.0,4.0,99,0.00,,,-99.99,,2013-08-29 08:52:00,
2013-08-29 02:01:00,53.0,53.0,-100.00,SE,125,2.0,4.0,99,0.00,,,-99.99,,2013-08-29 09:01:00,
2013-08-29 02:12:00,53.0,53.0,-100.00,SE,125,2.0,4.0,99,0.00,,,-99.99,,2013-08-29 09:12:00,
2013-08-29 02:43:00,52.0,52.0,-100.00,SE,143,0.0,4.0,99,0.00,,,-99.99,,2013-08-29 09:43:00,
2013-08-29 02:55:00,52.0,52.0,-100.00,SE,143,0.0,4.0,99,0.00,,,-99.99,,2013-08-29 09:55:00,
2013-08-29 03:06:00,52.0,52.0,-100.00,SE,143,0.0,4.0,99,0.00,,,-99.99,,2013-08-29 10:06:00,
2013-08-29 03:14:00,52.0,52.0,-100.00,SE,143,0.0,4.0,99,0.00,,,-99.99,,2013-08-29 10:14:00,
2013-08-29 03:43:00,52.0,52.0,-100.00,ESE,118,2.0,4.0,99,0.00,,,0.31,,2013-08-29 10:43:00,
2013-08-29 03:53:00,52.0,52.0,-100.00,ESE,118,2.0,4.0,99,0.00,,,0.31,,2013-08-29 10:53:00,
2013-08-29 04:03:00,52.0,52.0,-100.00,ESE,118,2.0,4.0,99,0.00,,,0.31,,2013-08-29 11:03:00,
2013-08-29 04:12:00,52.0,52.0,-100.00,ESE,118,2.0,4.0,99,0.00,,,0.31,,2013-08-29 11:12:00,
2013-08-29 04:42:00,52.0,52.0,-100.00,SE,133,2.0,5.0,99,0.00,,,0.31,,2013-08-29 11:42:00,
2013-08-29 04:52:00,52.0,52.0,-100.00,SE,133,2.0,5.0,99,0.00,,,0.31,,2013-08-29 11:52:00,
2013-08-29 05:02:00,52.0,52.0,-100.00,SE,133,2.0,5.0,99,0.00,,,0.31,,2013-08-29 12:02:00,
2013-08-29 05:11:00,52.0,52.0,-100.00,SE,133,2.0,5.0,99,0.00,,,0.31,,2013-08-29 12:11:00,
2013-08-29 05:42:00,51.0,51.0,-100.00,SE,136,1.0,4.0,99,0.00,,,0.31,,2013-08-29 12:42:00,
2013-08-29 05:52:00,51.0,51.0,-100.00,SE,136,1.0,4.0,99,0.00,,,0.31,,2013-08-29 12:52:00,
2013-08-29 06:02:00,51.0,51.0,-100.00,SE,136,1.0,4.0,99,0.00,,,0.31,,2013-08-29 13:02:00,
2013-08-29 06:12:00,51.0,51.0,-100.00,SE,136,1.0,4.0,99,0.00,,,0.31,,2013-08-29 13:12:00,
2013-08-29 06:42:00,51.0,51.0,-100.00,ESE,120,3.0,5.0,100,0.00,,,0.31,,2013-08-29 13:42:00,
2013-08-29 06:52:00,51.0,51.0,-100.00,ESE,120,3.0,5.0,100,0.00,,,0.31,,2013-08-29 13:52:00,
2013-08-29 07:02:00,51.0,51.0,-100.00,ESE,120,3.0,5.0,100,0.00,,,0.31,,2013-08-29 14:02:00,
2013-08-29 07:11:00,51.0,51.0,-100.00,ESE,120,3.0,5.0,100,0.00,,,0.31,,2013-08-29 14:11:00,
2013-08-29 07:42:00,54.0,54.0,-100.00,ESE,110,2.0,3.0,99,0.00,,,0.31,,2013-08-29 14:42:00,
2013-08-29 07:52:00,54.0,54.0,-100.00,ESE,110,2.0,3.0,99,0.00,,,0.31,,2013-08-29 14:52:00,
2013-08-29 08:02:00,54.0,54.0,-100.00,ESE,110,2.0,3.0,99,0.00,,,0.31,,2013-08-29 15:02:00,
2013-08-29 08:12:00,54.0,54.0,-100.00,ESE,110,2.0,3.0,99,0.00,,,0.31,,2013-08-29 15:12:00,
2013-08-29 08:43:00,64.0,63.0,-100.00,WSW,242,1.0,3.0,98,0.00,,,0.31,,2013-08-29 15:43:00,
2013-08-29 08:53:00,64.0,63.0,-100.00,WSW,242,1.0,3.0,98,0.00,,,0.31,,2013-08-29 15:53:00,
2013-08-29 09:04:00,64.0,63.0,-100.00,WSW,242,1.0,3.0,98,0.00,,,0.31,,2013-08-29 16:04:00,
2013-08-29 09:13:00,64.0,63.0,-100.00,WSW,242,1.0,3.0,98,0.00,,,0.31,,2013-08-29 16:13:00,
2013-08-29 09:43:00,67.0,58.0,-100.00,SW,228,2.0,6.0,73,0.00,,,0.31,,2013-08-29 16:43:00,
2013-08-29 09:54:00,67.0,58.0,-100.00,SW,228,2.0,6.0,73,0.00,,,0.31,,2013-08-29 16:54:00,
2013-08-29 10:03:00,67.0,58.0,-100.00,SW,228,2.0,6.0,73,0.00,,,0.31,,2013-08-29 17:03:00,
2013-08-29 10:13:00,67.0,58.0,-100.00,SW,228,2.0,6.0,73,0.00,,,0.31,,2013-08-29 17:13:00,
2013-08-29 10:44:00,72.0,60.0,-100.00,SW,236,4.0,9.0,66,0.00,,,0.31,,2013-08-29 17:44:00,
2013-08-29 10:52:00,72.0,60.0,-100.00,SW,236,4.0,9.0,66,0.00,,,0.31,,2013-08-29 17:52:00,
2013-08-29 11:01:00,72.0,60.0,-100.00,SW,236,4.0,9.0,66,0.00,,,0.31,,2013-08-29 18:01:00,
2013-08-29 11:11:00,72.0,60.0,-100.00,SW,236,4.0,9.0,66,0.00,,,0.31,,2013-08-29 18:11:00,
2013-08-29 11:42:00,74.0,60.0,-100.00,WNW,284,6.0,11.0,62,0.00,,,0.31,,2013-08-29 18:42:00,
2013-08-29 11:52:00,74.0,60.0,-100.00,WNW,284,6.0,11.0,62,0.00,,,0.31,,2013-08-29 18:52:00,
2013-08-29 12:01:00,74.0,60.0,-100.00,WNW,284,6.0,11.0,62,0.00,,,0.31,,2013-08-29 19:01:00,
2013-08-29 12:11:00,74.0,60.0,-100.00,WNW,284,6.0,11.0,62,0.00,,,0.31,,2013-08-29 19:11:00,
2013-08-29 12:42:00,68.0,59.0,-100.00,South,191,3.0,11.0,72,0.00,,,0.31,,2013-08-29 19:42:00,
2013-08-29 12:53:00,68.0,59.0,-100.00,South,191,3.0,11.0,72,0.00,,,0.31,,2013-08-29 19:53:00,
2013-08-29 13:02:00,68.0,59.0,-100.00,South,191,3.0,11.0,72,0.00,,,0.31,,2013-08-29 20:02:00,
2013-08-29 13:12:00,68.0,59.0,-100.00,South,191,3.0,11.0,72,0.00,,,0.31,,2013-08-29 20:12:00,
2013-08-29 13:42:00,65.0,59.0,-100.00,SE,146,5.0,10.0,80,0.01,,,0.32,,2013-08-29 20:42:00,
2013-08-29 13:52:00,65.0,59.0,-100.00,SE,146,5.0,10.0,80,0.01,,,0.32,,2013-08-29 20:52:00,
2013-08-29 14:01:00,65.0,59.0,-100.00,SE,146,5.0,10.0,80,0.01,,,0.32,,2013-08-29 21:01:00,
2013-08-29 14:12:00,65.0,59.0,-100.00,SE,146,5.0,10.0,80,0.01,,,0.32,,2013-08-29 21:12:00,
2013-08-29 14:44:00,63.0,61.0,-100.00,ESE,106,2.0,5.0,93,0.08,,,0.35,,2013-08-29 21:44:00,
2013-08-29 14:54:00,63.0,61.0,-100.00,ESE,106,2.0,5.0,93,0.08,,,0.35,,2013-08-29 21:54:00,
2013-08-29 15:04:00,63.0,61.0,-100.00,ESE,106,2.0,5.0,93,0.08,,,0.35,,2013-08-29 22:04:00,
2013-08-29 15:14:00,63.0,61.0,-100.00,ESE,106,2.0,5.0,93,0.08,,,0.35,,2013-08-29 22:14:00,
2013-08-29 15:53:00,65.0,63.0,-100.00,ESE,114,2.0,4.0,93,0.03,,,0.17,,2013-08-29 22:53:00,
2013-08-29 16:03:00,65.0,63.0,-100.00,ESE,114,2.0,4.0,93,0.03,,,0.17,,2013-08-29 23:03:00,
2013-08-29 16:12:00,65.0,63.0,-100.00,ESE,114,2.0,4.0,93,0.03,,,0.17,,2013-08-29 23:12:00,
2013-08-29 16:43:00,69.0,62.0,-100.00,NW,320,2.0,5.0,79,0.00,,,0.12,,2013-08-29 23:43:00,
2013-08-29 16:53:00,69.0,62.0,-100.00,NW,320,2.0,5.0,79,0.00,,,0.12,,2013-08-29 23:53:00,
2013-08-29 17:02:00,69.0,62.0,-100.00,NW,320,2.0,5.0,79,0.00,,,0.12,,2013-08-30 00:02:00,
2013-08-29 17:12:00,69.0,62.0,-100.00,NW,320,2.0,5.0,79,0.00,,,0.12,,2013-08-30 00:12:00,
2013-08-29 17:42:00,66.0,60.0,-100.00,South,183,2.0,4.0,80,0.00,,,-99.99,,2013-08-30 00:42:00,
2013-08-29 17:52:00,66.0,60.0,-100.00,South,183,2.0,4.0,80,0.00,,,-99.99,,2013-08-30 00:52:00,
2013-08-29 18:01:00,66.0,60.0,-100.00,South,183,2.0,4.0,80,0.00,,,-99.99,,2013-08-30 01:01:00,
2013-08-29 18:12:00,66.0,60.0,-100.00,South,183,2.0,4.0,80,0.00,,,-99.99,,2013-08-30 01:12:00,
2013-08-29 18:42:00,64.0,61.0,-100.00,SE,136,2.0,4.0,91,0.00,,,0.12,,2013-08-30 01:42:00,
2013-08-29 18:52:00,64.0,61.0,-100.00,SE,136,2.0,4.0,91,0.00,,,0.12,,2013-08-30 01:52:00,
2013-08-29 19:02:00,64.0,61.0,-100.00,SE,136,2.0,4.0,91,0.00,,,0.12,,2013-08-30 02:02:00,
2013-08-29 19:11:00,64.0,61.0,-100.00,SE,136,2.0,4.0,91,0.00,,,0.12,,2013-08-30 02:11:00,
2013-08-29 19:42:00,61.0,60.0,-100.00,SE,146,3.0,4.0,95,0.00,,,0.12,,2013-08-30 02:42:00,
2013-08-29 19:52:00,61.0,60.0,-100.00,SE,146,3.0,4.0,95,0.00,,,0.12,,2013-08-30 02:52:00,
2013-08-29 20:02:00,61.0,60.0,-100.00,SE,146,3.0,4.0,95,0.00,,,0.12,,2013-08-30 03:02:00,
2013-08-29 20:12:00,61.0,60.0,-100.00,SE,146,3.0,4.0,95,0.00,,,0.12,,2013-08-30 03:12:00,
2013-08-29 20:43:00,60.0,59.0,-100.00,SW,224,2.0,4.0,97,0.00,,,0.12,,2013-08-30 03:43:00,
2013-08-29 20:55:00,60.0,59.0,-100.00,SW,224,2.0,4.0,97,0.00,,,0.12,,2013-08-30 03:55:00,
2013-08-29 21:04:00,60.0,59.0,-100.00,SW,224,2.0,4.0,97,0.00,,,0.12,,2013-08-30 04:04:00,
2013-08-29 21:14:00,60.0,59.0,-100.00,SW,224,2.0,4.0,97,0.00,,,0.12,,2013-08-30 04:14:00,
2013-08-29 21:44:00,62.0,61.0,-100.00,South,175,2.0,6.0,95,0.00,,,0.12,,2013-08-30 04:44:00,
2013-08-29 21:54:00,62.0,61.0,-100.00,South,175,2.0,6.0,95,0.00,,,0.12,,2013-08-30 04:54:00,
2013-08-29 22:03:00,62.0,61.0,-100.00,South,175,2.0,6.0,95,0.00,,,0.12,,2013-08-30 05:03:00,
2013-08-29 22:12:00,62.0,61.0,-100.00,South,175,2.0,6.0,95,0.00,,,0.12,,2013-08-30 05:12:00,
2013-08-29 22:42:00,63.0,59.0,-100.00,South,176,3.0,7.0,87,0.00,,,0.12,,2013-08-30 05:42:00,
2013-08-29 22:52:00,63.0,59.0,-100.00,South,176,3.0,7.0,87,0.00,,,0.12,,2013-08-30 05:52:00,
2013-08-29 23:02:00,63.0,59.0,-100.00,South,176,3.0,7.0,87,0.00,,,0.12,,2013-08-30 06:02:00,
2013-08-29 23:12:00,63.0,59.0,-100.00,South,176,3.0,7.0,87,0.00,,,0.12,,2013-08-30 06:12:00,
2013-08-29 23:42:00,62.0,59.0,-100.00,West,278,2.0,5.0,91,0.00,,,0.12,,2013-08-30 06:42:00,
2013-08-29 23:53:00,62.0,59.0,-100.00,West,278,2.0,5.0,91,0.00,,,0.12,,2013-08-30 06:53:00,